Eikamaru No.2 — JD3056 — position and weather

sailwx.info

Track history (hours):
 
Tides and Currents Weather Stations Pressure Air Temp Water Temp Dewpoint Dewpoint Depression Visibility Wind Speed Wind Dir Waves Ship Positions

Eikamaru No.2

Last reported at 2014-Oct-02 07:33 UTC. Time now 2014-Oct-02 16:42 UTC.
Position N 35°16' E 139°46'.

Length 60 m; draft 3.3 m.

Type: Tanker. MMSI: 431001342.

Date/timePositionNaut miles runAvg speedWind from/ knotsBaromVisibWave heightAir tempDewpointWater temp
2014-Oct-02 07:33N 35°16' E 139°46'10 9.9
2014-Oct-02 06:34N 35°26' E 139°45'1211.8
2014-Oct-02 05:32N 35°32' E 139°57'1 0.3
2014-Oct-02 01:15N 35°33' E 139°59'812.2
2014-Oct-02 00:34N 35°28' E 139°51'1111.1
2014-Oct-01 23:34N 35°17' E 139°45'3 0.1
2014-Sep-30 07:08N 35°14' E 139°46'611.0
2014-Sep-30 06:34N 35°20' E 139°42'1010.0
2014-Sep-30 05:34N 35°28' E 139°49'3 2.6
2014-Sep-30 04:34N 35°30' E 139°51'  
2014-Sep-26 17:13N 35°31' E 139°55'811.9
2014-Sep-26 16:34N 35°26' E 139°48'1010.1
2014-Sep-26 15:34N 35°15' E 139°47'  
2014-Sep-24 03:30N 34°36' E 134°55'8 8.9
2014-Sep-24 02:33N 34°34' E 135°05'1211.7
2014-Sep-24 01:33N 34°23' E 135°01'  
Track history (hours):
 
Tides and Currents Weather Stations Pressure Air Temp Water Temp Dewpoint Dewpoint Depression Visibility Wind Speed Wind Dir Waves Ship Positions

Eikamaru No.2

Last reported at 2014-Oct-02 07:33 UTC. Time now 2014-Oct-02 16:42 UTC.
Position N 35°16' E 139°46'.

Length 60 m; draft 3.3 m.

Type: Tanker. MMSI: 431001342.

Date/timePositionNaut miles runAvg speedWind from/ knotsBaromVisibWave heightAir tempDewpointWater temp
2014-Oct-02 07:33N 35°16' E 139°46'10 9.9
2014-Oct-02 06:34N 35°26' E 139°45'1211.8
2014-Oct-02 05:32N 35°32' E 139°57'1 0.3
2014-Oct-02 01:15N 35°33' E 139°59'812.2
2014-Oct-02 00:34N 35°28' E 139°51'1111.1
2014-Oct-01 23:34N 35°17' E 139°45'3 0.1
2014-Sep-30 07:08N 35°14' E 139°46'611.0
2014-Sep-30 06:34N 35°20' E 139°42'1010.0
2014-Sep-30 05:34N 35°28' E 139°49'3 2.6
2014-Sep-30 04:34N 35°30' E 139°51'  
2014-Sep-26 17:13N 35°31' E 139°55'811.9
2014-Sep-26 16:34N 35°26' E 139°48'1010.1
2014-Sep-26 15:34N 35°15' E 139°47'  
2014-Sep-24 03:30N 34°36' E 134°55'8 8.9
2014-Sep-24 02:33N 34°34' E 135°05'1211.7
2014-Sep-24 01:33N 34°23' E 135°01'  

Dump ship's entire track history